sensor_id;sensor_type;location;lat;lon;timestamp;P1;durP1;ratioP1;P2;durP2;ratioP2
45236;SDS011;30973;51.442;3.580;2023-05-10T00:02:13;15.35;;;7.13;;
45236;SDS011;30973;51.442;3.580;2023-05-10T00:04:40;14.48;;;7.65;;
45236;SDS011;30973;51.442;3.580;2023-05-10T00:07:07;15.20;;;6.93;;
45236;SDS011;30973;51.442;3.580;2023-05-10T00:09:33;13.77;;;7.25;;
45236;SDS011;30973;51.442;3.580;2023-05-10T00:12:00;13.80;;;7.97;;
45236;SDS011;30973;51.442;3.580;2023-05-10T00:14:26;17.15;;;7.65;;
45236;SDS011;30973;51.442;3.580;2023-05-10T00:16:53;17.27;;;8.38;;
45236;SDS011;30973;51.442;3.580;2023-05-10T00:19:20;17.35;;;8.82;;
45236;SDS011;30973;51.442;3.580;2023-05-10T00:21:47;18.65;;;9.63;;
45236;SDS011;30973;51.442;3.580;2023-05-10T00:24:13;19.55;;;9.25;;
45236;SDS011;30973;51.442;3.580;2023-05-10T00:26:40;17.67;;;9.35;;
45236;SDS011;30973;51.442;3.580;2023-05-10T00:29:08;15.93;;;9.27;;
45236;SDS011;30973;51.442;3.580;2023-05-10T00:31:35;18.80;;;9.73;;
45236;SDS011;30973;51.442;3.580;2023-05-10T00:34:01;19.48;;;9.48;;
45236;SDS011;30973;51.442;3.580;2023-05-10T00:36:28;19.33;;;10.35;;
45236;SDS011;30973;51.442;3.580;2023-05-10T00:38:55;17.38;;;9.32;;
45236;SDS011;30973;51.442;3.580;2023-05-10T00:41:23;17.42;;;10.65;;
45236;SDS011;30973;51.442;3.580;2023-05-10T00:43:49;19.33;;;10.80;;
45236;SDS011;30973;51.442;3.580;2023-05-10T00:46:16;20.35;;;10.40;;
45236;SDS011;30973;51.442;3.580;2023-05-10T00:48:43;19.70;;;11.68;;
45236;SDS011;30973;51.442;3.580;2023-05-10T00:51:10;17.75;;;11.32;;
45236;SDS011;30973;51.442;3.580;2023-05-10T00:53:37;21.15;;;11.93;;
45236;SDS011;30973;51.442;3.580;2023-05-10T00:56:11;19.65;;;11.65;;
45236;SDS011;30973;51.442;3.580;2023-05-10T00:58:41;22.90;;;12.57;;
45236;SDS011;30973;51.442;3.580;2023-05-10T01:01:14;19.08;;;11.80;;
45236;SDS011;30973;51.442;3.580;2023-05-10T01:03:41;9.27;;;4.68;;
45236;SDS011;30973;51.442;3.580;2023-05-10T01:06:08;8.60;;;3.83;;
45236;SDS011;30973;51.442;3.580;2023-05-10T01:08:36;8.48;;;3.30;;
45236;SDS011;30973;51.442;3.580;2023-05-10T01:11:02;9.55;;;3.47;;
45236;SDS011;30973;51.442;3.580;2023-05-10T01:13:30;9.85;;;3.10;;
45236;SDS011;30973;51.442;3.580;2023-05-10T01:15:58;9.88;;;3.45;;
45236;SDS011;30973;51.442;3.580;2023-05-10T01:18:26;16.20;;;3.95;;
45236;SDS011;30973;51.442;3.580;2023-05-10T01:20:56;8.23;;;3.70;;
45236;SDS011;30973;51.442;3.580;2023-05-10T01:33:59;11.48;;;4.05;;
45236;SDS011;30973;51.442;3.580;2023-05-10T01:36:31;7.57;;;3.28;;
45236;SDS011;30973;51.442;3.580;2023-05-10T01:39:03;11.88;;;3.42;;
45236;SDS011;30973;51.442;3.580;2023-05-10T01:44:18;9.55;;;2.90;;
45236;SDS011;30973;51.442;3.580;2023-05-10T01:46:48;7.50;;;3.38;;
45236;SDS011;30973;51.442;3.580;2023-05-10T01:49:20;9.10;;;3.10;;
45236;SDS011;30973;51.442;3.580;2023-05-10T01:51:49;11.30;;;3.08;;
45236;SDS011;30973;51.442;3.580;2023-05-10T01:54:19;11.57;;;4.13;;
45236;SDS011;30973;51.442;3.580;2023-05-10T01:56:47;5.78;;;2.70;;
45236;SDS011;30973;51.442;3.580;2023-05-10T01:59:17;6.85;;;3.03;;
45236;SDS011;30973;51.442;3.580;2023-05-10T02:01:45;6.30;;;2.65;;
45236;SDS011;30973;51.442;3.580;2023-05-10T02:04:13;8.00;;;2.47;;
45236;SDS011;30973;51.442;3.580;2023-05-10T02:06:42;7.93;;;2.83;;
45236;SDS011;30973;51.442;3.580;2023-05-10T02:09:09;6.50;;;2.50;;
45236;SDS011;30973;51.442;3.580;2023-05-10T02:11:37;5.75;;;2.90;;
45236;SDS011;30973;51.442;3.580;2023-05-10T02:14:05;10.02;;;3.35;;
45236;SDS011;30973;51.442;3.580;2023-05-10T02:16:34;13.45;;;3.03;;
45236;SDS011;30973;51.442;3.580;2023-05-10T02:19:01;6.25;;;2.13;;
45236;SDS011;30973;51.442;3.580;2023-05-10T02:21:28;7.97;;;2.58;;
45236;SDS011;30973;51.442;3.580;2023-05-10T02:23:56;7.35;;;2.47;;
45236;SDS011;30973;51.442;3.580;2023-05-10T02:26:23;7.25;;;2.50;;
45236;SDS011;30973;51.442;3.580;2023-05-10T02:28:51;5.32;;;1.90;;
45236;SDS011;30973;51.442;3.580;2023-05-10T02:31:18;4.68;;;1.58;;
45236;SDS011;30973;51.442;3.580;2023-05-10T02:33:45;9.23;;;2.15;;
45236;SDS011;30973;51.442;3.580;2023-05-10T02:36:12;6.75;;;2.30;;
45236;SDS011;30973;51.442;3.580;2023-05-10T02:38:39;11.23;;;2.63;;
45236;SDS011;30973;51.442;3.580;2023-05-10T02:41:07;9.07;;;2.58;;
45236;SDS011;30973;51.442;3.580;2023-05-10T02:43:34;7.68;;;3.17;;
45236;SDS011;30973;51.442;3.580;2023-05-10T02:46:01;8.60;;;4.07;;
45236;SDS011;30973;51.442;3.580;2023-05-10T02:48:28;13.05;;;4.97;;
45236;SDS011;30973;51.442;3.580;2023-05-10T02:50:56;12.70;;;5.82;;
45236;SDS011;30973;51.442;3.580;2023-05-10T02:53:30;10.18;;;5.80;;
45236;SDS011;30973;51.442;3.580;2023-05-10T02:56:03;14.35;;;6.18;;
45236;SDS011;30973;51.442;3.580;2023-05-10T02:58:30;10.13;;;5.88;;
45236;SDS011;30973;51.442;3.580;2023-05-10T03:00:57;7.18;;;4.25;;
45236;SDS011;30973;51.442;3.580;2023-05-10T03:03:23;10.95;;;4.88;;
45236;SDS011;30973;51.442;3.580;2023-05-10T03:05:50;6.30;;;4.18;;
45236;SDS011;30973;51.442;3.580;2023-05-10T03:08:16;6.40;;;4.70;;
45236;SDS011;30973;51.442;3.580;2023-05-10T03:10:50;8.98;;;4.25;;
45236;SDS011;30973;51.442;3.580;2023-05-10T03:13:25;6.18;;;3.72;;
45236;SDS011;30973;51.442;3.580;2023-05-10T03:18:37;6.40;;;4.95;;
45236;SDS011;30973;51.442;3.580;2023-05-10T03:21:05;5.97;;;4.47;;
45236;SDS011;30973;51.442;3.580;2023-05-10T03:26:07;7.60;;;4.20;;
45236;SDS011;30973;51.442;3.580;2023-05-10T03:28:34;6.25;;;4.50;;
45236;SDS011;30973;51.442;3.580;2023-05-10T03:31:03;10.98;;;5.47;;
45236;SDS011;30973;51.442;3.580;2023-05-10T03:33:32;8.35;;;4.60;;
45236;SDS011;30973;51.442;3.580;2023-05-10T03:35:59;6.53;;;3.88;;
45236;SDS011;30973;51.442;3.580;2023-05-10T03:38:26;10.88;;;4.82;;
45236;SDS011;30973;51.442;3.580;2023-05-10T03:40:55;8.48;;;5.20;;
45236;SDS011;30973;51.442;3.580;2023-05-10T03:43:22;6.82;;;4.00;;
45236;SDS011;30973;51.442;3.580;2023-05-10T03:45:49;8.00;;;4.63;;
45236;SDS011;30973;51.442;3.580;2023-05-10T03:48:15;8.05;;;4.70;;
45236;SDS011;30973;51.442;3.580;2023-05-10T03:50:42;7.38;;;3.97;;
45236;SDS011;30973;51.442;3.580;2023-05-10T03:53:09;6.10;;;3.55;;
45236;SDS011;30973;51.442;3.580;2023-05-10T03:55:35;7.50;;;4.35;;
45236;SDS011;30973;51.442;3.580;2023-05-10T03:58:03;6.45;;;3.72;;
45236;SDS011;30973;51.442;3.580;2023-05-10T04:00:29;8.50;;;4.60;;
45236;SDS011;30973;51.442;3.580;2023-05-10T04:02:56;7.85;;;4.78;;
45236;SDS011;30973;51.442;3.580;2023-05-10T04:05:23;7.10;;;4.15;;
45236;SDS011;30973;51.442;3.580;2023-05-10T04:07:51;6.65;;;4.20;;
45236;SDS011;30973;51.442;3.580;2023-05-10T04:10:18;8.10;;;5.30;;
45236;SDS011;30973;51.442;3.580;2023-05-10T04:12:45;8.45;;;4.47;;
45236;SDS011;30973;51.442;3.580;2023-05-10T04:15:11;8.45;;;4.65;;
45236;SDS011;30973;51.442;3.580;2023-05-10T04:17:38;7.88;;;4.70;;
45236;SDS011;30973;51.442;3.580;2023-05-10T04:20:05;9.18;;;5.15;;
45236;SDS011;30973;51.442;3.580;2023-05-10T04:22:32;8.73;;;4.72;;
45236;SDS011;30973;51.442;3.580;2023-05-10T04:24:59;6.93;;;4.45;;
45236;SDS011;30973;51.442;3.580;2023-05-10T04:27:26;8.63;;;5.35;;
45236;SDS011;30973;51.442;3.580;2023-05-10T04:29:52;13.38;;;5.10;;
45236;SDS011;30973;51.442;3.580;2023-05-10T04:32:19;7.43;;;4.40;;
45236;SDS011;30973;51.442;3.580;2023-05-10T04:34:46;11.63;;;5.30;;
45236;SDS011;30973;51.442;3.580;2023-05-10T04:37:13;10.40;;;5.45;;
45236;SDS011;30973;51.442;3.580;2023-05-10T04:39:40;11.65;;;5.10;;
45236;SDS011;30973;51.442;3.580;2023-05-10T04:42:07;7.70;;;4.97;;
45236;SDS011;30973;51.442;3.580;2023-05-10T04:44:34;8.40;;;5.43;;
45236;SDS011;30973;51.442;3.580;2023-05-10T04:47:01;10.88;;;5.63;;
45236;SDS011;30973;51.442;3.580;2023-05-10T04:49:29;9.73;;;5.28;;
45236;SDS011;30973;51.442;3.580;2023-05-10T04:51:56;11.68;;;4.40;;
45236;SDS011;30973;51.442;3.580;2023-05-10T04:54:22;11.88;;;4.72;;
45236;SDS011;30973;51.442;3.580;2023-05-10T04:56:49;7.63;;;4.28;;
45236;SDS011;30973;51.442;3.580;2023-05-10T04:59:15;10.65;;;4.13;;
45236;SDS011;30973;51.442;3.580;2023-05-10T05:01:42;9.40;;;4.00;;
45236;SDS011;30973;51.442;3.580;2023-05-10T05:04:09;7.03;;;3.85;;
45236;SDS011;30973;51.442;3.580;2023-05-10T05:06:35;5.85;;;3.97;;
45236;SDS011;30973;51.442;3.580;2023-05-10T05:09:02;9.23;;;3.65;;
45236;SDS011;30973;51.442;3.580;2023-05-10T05:11:28;7.93;;;3.35;;
45236;SDS011;30973;51.442;3.580;2023-05-10T05:13:55;8.13;;;4.07;;
45236;SDS011;30973;51.442;3.580;2023-05-10T05:16:21;5.47;;;3.17;;
45236;SDS011;30973;51.442;3.580;2023-05-10T05:18:48;6.03;;;3.20;;
45236;SDS011;30973;51.442;3.580;2023-05-10T05:21:18;4.50;;;2.88;;
45236;SDS011;30973;51.442;3.580;2023-05-10T05:23:45;6.13;;;3.30;;
45236;SDS011;30973;51.442;3.580;2023-05-10T05:26:11;6.03;;;2.85;;
45236;SDS011;30973;51.442;3.580;2023-05-10T05:28:38;6.68;;;2.80;;
45236;SDS011;30973;51.442;3.580;2023-05-10T05:31:05;5.57;;;3.25;;
45236;SDS011;30973;51.442;3.580;2023-05-10T05:33:32;4.80;;;3.22;;
45236;SDS011;30973;51.442;3.580;2023-05-10T05:36:01;7.70;;;3.25;;
45236;SDS011;30973;51.442;3.580;2023-05-10T05:38:28;7.32;;;3.17;;
45236;SDS011;30973;51.442;3.580;2023-05-10T05:40:55;6.65;;;3.10;;
45236;SDS011;30973;51.442;3.580;2023-05-10T05:43:21;5.93;;;3.15;;
45236;SDS011;30973;51.442;3.580;2023-05-10T05:45:48;4.10;;;2.75;;
45236;SDS011;30973;51.442;3.580;2023-05-10T05:48:15;6.38;;;3.00;;
45236;SDS011;30973;51.442;3.580;2023-05-10T05:50:41;6.07;;;3.10;;
45236;SDS011;30973;51.442;3.580;2023-05-10T05:53:08;6.07;;;3.20;;
45236;SDS011;30973;51.442;3.580;2023-05-10T05:55:35;7.03;;;3.08;;
45236;SDS011;30973;51.442;3.580;2023-05-10T05:58:01;6.05;;;3.28;;
45236;SDS011;30973;51.442;3.580;2023-05-10T06:00:28;6.97;;;3.28;;
45236;SDS011;30973;51.442;3.580;2023-05-10T06:02:55;4.57;;;3.03;;
45236;SDS011;30973;51.442;3.580;2023-05-10T06:05:22;6.70;;;3.30;;
45236;SDS011;30973;51.442;3.580;2023-05-10T06:07:48;3.72;;;2.90;;
45236;SDS011;30973;51.442;3.580;2023-05-10T06:10:15;5.47;;;2.70;;
45236;SDS011;30973;51.442;3.580;2023-05-10T06:12:42;5.65;;;2.60;;
45236;SDS011;30973;51.442;3.580;2023-05-10T06:15:08;6.85;;;2.75;;
45236;SDS011;30973;51.442;3.580;2023-05-10T06:17:35;7.95;;;3.10;;
45236;SDS011;30973;51.442;3.580;2023-05-10T06:20:02;4.85;;;2.40;;
45236;SDS011;30973;51.442;3.580;2023-05-10T06:22:28;4.00;;;2.58;;
45236;SDS011;30973;51.442;3.580;2023-05-10T06:24:55;4.03;;;1.85;;
45236;SDS011;30973;51.442;3.580;2023-05-10T06:27:22;4.75;;;2.17;;
45236;SDS011;30973;51.442;3.580;2023-05-10T06:29:49;5.63;;;2.30;;
45236;SDS011;30973;51.442;3.580;2023-05-10T06:32:24;6.10;;;2.72;;
45236;SDS011;30973;51.442;3.580;2023-05-10T06:34:51;5.65;;;2.70;;
45236;SDS011;30973;51.442;3.580;2023-05-10T06:37:18;5.03;;;2.60;;
45236;SDS011;30973;51.442;3.580;2023-05-10T06:39:44;5.47;;;2.35;;
45236;SDS011;30973;51.442;3.580;2023-05-10T06:42:11;4.88;;;2.22;;
45236;SDS011;30973;51.442;3.580;2023-05-10T06:44:38;4.72;;;2.25;;
45236;SDS011;30973;51.442;3.580;2023-05-10T06:47:04;4.80;;;2.13;;
45236;SDS011;30973;51.442;3.580;2023-05-10T06:49:31;5.53;;;2.50;;
45236;SDS011;30973;51.442;3.580;2023-05-10T06:51:58;5.07;;;2.28;;
45236;SDS011;30973;51.442;3.580;2023-05-10T06:54:30;3.30;;;1.85;;
45236;SDS011;30973;51.442;3.580;2023-05-10T06:57:04;3.13;;;1.92;;
45236;SDS011;30973;51.442;3.580;2023-05-10T06:59:50;5.18;;;1.95;;
45236;SDS011;30973;51.442;3.580;2023-05-10T07:02:20;4.22;;;2.08;;
45236;SDS011;30973;51.442;3.580;2023-05-10T07:04:49;4.10;;;2.10;;
45236;SDS011;30973;51.442;3.580;2023-05-10T07:07:18;4.45;;;1.70;;
45236;SDS011;30973;51.442;3.580;2023-05-10T07:09:48;3.42;;;1.83;;
45236;SDS011;30973;51.442;3.580;2023-05-10T07:12:17;5.53;;;2.20;;
45236;SDS011;30973;51.442;3.580;2023-05-10T07:14:44;3.85;;;2.05;;
45236;SDS011;30973;51.442;3.580;2023-05-10T07:17:11;4.25;;;1.80;;
45236;SDS011;30973;51.442;3.580;2023-05-10T07:19:38;5.15;;;2.42;;
45236;SDS011;30973;51.442;3.580;2023-05-10T07:22:15;3.30;;;2.00;;
45236;SDS011;30973;51.442;3.580;2023-05-10T07:24:48;3.50;;;2.00;;
45236;SDS011;30973;51.442;3.580;2023-05-10T07:27:19;4.07;;;1.55;;
45236;SDS011;30973;51.442;3.580;2023-05-10T07:30:00;3.85;;;1.90;;
45236;SDS011;30973;51.442;3.580;2023-05-10T07:32:30;3.47;;;1.50;;
45236;SDS011;30973;51.442;3.580;2023-05-10T07:35:00;3.85;;;2.10;;
45236;SDS011;30973;51.442;3.580;2023-05-10T07:37:32;4.63;;;1.95;;
45236;SDS011;30973;51.442;3.580;2023-05-10T07:39:59;3.53;;;1.90;;
45236;SDS011;30973;51.442;3.580;2023-05-10T07:42:26;5.45;;;2.17;;
45236;SDS011;30973;51.442;3.580;2023-05-10T07:44:55;4.32;;;2.08;;
45236;SDS011;30973;51.442;3.580;2023-05-10T07:47:22;3.63;;;1.98;;
45236;SDS011;30973;51.442;3.580;2023-05-10T07:49:51;7.00;;;2.10;;
45236;SDS011;30973;51.442;3.580;2023-05-10T07:52:18;4.95;;;2.40;;
45236;SDS011;30973;51.442;3.580;2023-05-10T07:54:48;3.72;;;2.08;;
45236;SDS011;30973;51.442;3.580;2023-05-10T07:57:17;5.57;;;2.20;;
45236;SDS011;30973;51.442;3.580;2023-05-10T07:59:44;4.20;;;2.20;;
45236;SDS011;30973;51.442;3.580;2023-05-10T08:02:11;5.72;;;2.40;;
45236;SDS011;30973;51.442;3.580;2023-05-10T08:04:38;3.53;;;2.13;;
45236;SDS011;30973;51.442;3.580;2023-05-10T08:07:04;4.28;;;2.03;;
45236;SDS011;30973;51.442;3.580;2023-05-10T08:09:31;4.88;;;2.42;;
45236;SDS011;30973;51.442;3.580;2023-05-10T08:11:58;2.85;;;1.92;;
45236;SDS011;30973;51.442;3.580;2023-05-10T08:14:27;4.63;;;2.33;;
45236;SDS011;30973;51.442;3.580;2023-05-10T08:16:54;4.70;;;2.17;;
45236;SDS011;30973;51.442;3.580;2023-05-10T08:19:21;5.35;;;2.28;;
45236;SDS011;30973;51.442;3.580;2023-05-10T08:21:49;3.88;;;2.15;;
45236;SDS011;30973;51.442;3.580;2023-05-10T08:24:15;7.28;;;2.60;;
45236;SDS011;30973;51.442;3.580;2023-05-10T08:26:42;6.82;;;2.20;;
45236;SDS011;30973;51.442;3.580;2023-05-10T08:29:12;5.60;;;2.70;;
45236;SDS011;30973;51.442;3.580;2023-05-10T08:31:38;4.28;;;2.53;;
45236;SDS011;30973;51.442;3.580;2023-05-10T08:34:05;5.75;;;2.40;;
45236;SDS011;30973;51.442;3.580;2023-05-10T08:36:32;3.97;;;2.20;;
45236;SDS011;30973;51.442;3.580;2023-05-10T08:38:59;4.97;;;2.58;;
45236;SDS011;30973;51.442;3.580;2023-05-10T08:41:26;2.92;;;2.00;;
45236;SDS011;30973;51.442;3.580;2023-05-10T08:43:53;3.95;;;2.20;;
45236;SDS011;30973;51.442;3.580;2023-05-10T08:46:20;3.88;;;2.10;;
45236;SDS011;30973;51.442;3.580;2023-05-10T08:48:48;4.10;;;2.67;;
45236;SDS011;30973;51.442;3.580;2023-05-10T08:51:17;6.43;;;2.60;;
45236;SDS011;30973;51.442;3.580;2023-05-10T08:53:44;5.97;;;2.70;;
45236;SDS011;30973;51.442;3.580;2023-05-10T08:56:11;4.68;;;2.50;;
45236;SDS011;30973;51.442;3.580;2023-05-10T08:58:38;4.43;;;2.60;;
45236;SDS011;30973;51.442;3.580;2023-05-10T09:01:05;5.32;;;2.95;;
45236;SDS011;30973;51.442;3.580;2023-05-10T09:03:31;5.65;;;2.97;;
45236;SDS011;30973;51.442;3.580;2023-05-10T09:05:58;6.05;;;3.03;;
45236;SDS011;30973;51.442;3.580;2023-05-10T09:08:25;6.63;;;3.92;;
45236;SDS011;30973;51.442;3.580;2023-05-10T09:10:53;4.43;;;3.05;;
45236;SDS011;30973;51.442;3.580;2023-05-10T09:13:20;5.90;;;4.10;;
45236;SDS011;30973;51.442;3.580;2023-05-10T09:15:47;7.43;;;4.13;;
45236;SDS011;30973;51.442;3.580;2023-05-10T09:18:14;6.40;;;4.25;;
45236;SDS011;30973;51.442;3.580;2023-05-10T09:20:41;8.68;;;4.35;;
45236;SDS011;30973;51.442;3.580;2023-05-10T09:23:07;6.78;;;4.30;;
45236;SDS011;30973;51.442;3.580;2023-05-10T09:25:34;8.38;;;4.30;;
45236;SDS011;30973;51.442;3.580;2023-05-10T09:28:01;7.00;;;4.05;;
45236;SDS011;30973;51.442;3.580;2023-05-10T09:30:29;7.13;;;3.97;;
45236;SDS011;30973;51.442;3.580;2023-05-10T09:32:56;7.75;;;4.35;;
45236;SDS011;30973;51.442;3.580;2023-05-10T09:35:24;7.07;;;4.53;;
45236;SDS011;30973;51.442;3.580;2023-05-10T09:37:55;9.73;;;5.25;;
45236;SDS011;30973;51.442;3.580;2023-05-10T09:40:23;8.32;;;4.85;;
45236;SDS011;30973;51.442;3.580;2023-05-10T09:42:57;6.38;;;4.40;;
45236;SDS011;30973;51.442;3.580;2023-05-10T09:45:24;8.15;;;5.00;;
45236;SDS011;30973;51.442;3.580;2023-05-10T09:47:51;7.85;;;5.00;;
45236;SDS011;30973;51.442;3.580;2023-05-10T09:50:18;6.47;;;5.15;;
45236;SDS011;30973;51.442;3.580;2023-05-10T09:55:12;7.75;;;4.72;;
45236;SDS011;30973;51.442;3.580;2023-05-10T09:57:39;8.25;;;4.93;;
45236;SDS011;30973;51.442;3.580;2023-05-10T10:00:07;8.27;;;5.72;;
45236;SDS011;30973;51.442;3.580;2023-05-10T10:02:41;6.72;;;5.20;;
45236;SDS011;30973;51.442;3.580;2023-05-10T10:05:07;9.45;;;6.10;;
45236;SDS011;30973;51.442;3.580;2023-05-10T10:07:34;8.88;;;5.28;;
45236;SDS011;30973;51.442;3.580;2023-05-10T10:10:02;8.15;;;4.80;;
45236;SDS011;30973;51.442;3.580;2023-05-10T10:12:31;8.38;;;5.28;;
45236;SDS011;30973;51.442;3.580;2023-05-10T10:14:58;8.27;;;5.25;;
45236;SDS011;30973;51.442;3.580;2023-05-10T10:17:26;7.00;;;4.78;;
45236;SDS011;30973;51.442;3.580;2023-05-10T10:19:54;7.70;;;5.07;;
45236;SDS011;30973;51.442;3.580;2023-05-10T10:22:21;9.88;;;5.75;;
45236;SDS011;30973;51.442;3.580;2023-05-10T10:24:48;10.70;;;5.57;;
45236;SDS011;30973;51.442;3.580;2023-05-10T10:27:20;9.25;;;5.45;;
45236;SDS011;30973;51.442;3.580;2023-05-10T10:35:16;8.90;;;5.43;;
45236;SDS011;30973;51.442;3.580;2023-05-10T10:37:46;9.75;;;5.00;;
45236;SDS011;30973;51.442;3.580;2023-05-10T10:40:25;5.97;;;5.00;;
45236;SDS011;30973;51.442;3.580;2023-05-10T10:42:52;9.27;;;5.50;;
45236;SDS011;30973;51.442;3.580;2023-05-10T10:45:20;10.77;;;5.25;;
45236;SDS011;30973;51.442;3.580;2023-05-10T10:47:47;9.38;;;5.28;;
45236;SDS011;30973;51.442;3.580;2023-05-10T10:50:14;8.30;;;4.78;;
45236;SDS011;30973;51.442;3.580;2023-05-10T10:52:43;7.90;;;5.22;;
45236;SDS011;30973;51.442;3.580;2023-05-10T10:55:19;7.00;;;4.93;;
45236;SDS011;30973;51.442;3.580;2023-05-10T10:57:55;6.95;;;5.03;;
45236;SDS011;30973;51.442;3.580;2023-05-10T11:00:30;7.07;;;5.05;;
45236;SDS011;30973;51.442;3.580;2023-05-10T11:02:58;6.68;;;4.45;;
45236;SDS011;30973;51.442;3.580;2023-05-10T11:07:52;7.20;;;4.30;;
45236;SDS011;30973;51.442;3.580;2023-05-10T11:10:20;7.07;;;4.93;;
45236;SDS011;30973;51.442;3.580;2023-05-10T11:12:52;8.90;;;4.55;;
45236;SDS011;30973;51.442;3.580;2023-05-10T11:15:20;8.40;;;5.10;;
45236;SDS011;30973;51.442;3.580;2023-05-10T11:17:54;8.27;;;4.47;;
45236;SDS011;30973;51.442;3.580;2023-05-10T11:20:22;9.13;;;5.30;;
45236;SDS011;30973;51.442;3.580;2023-05-10T11:22:51;8.00;;;5.35;;
45236;SDS011;30973;51.442;3.580;2023-05-10T11:25:18;6.80;;;5.07;;
45236;SDS011;30973;51.442;3.580;2023-05-10T11:27:46;8.38;;;4.68;;
45236;SDS011;30973;51.442;3.580;2023-05-10T11:30:14;9.60;;;4.95;;
45236;SDS011;30973;51.442;3.580;2023-05-10T11:32:41;7.82;;;4.97;;
45236;SDS011;30973;51.442;3.580;2023-05-10T11:35:12;10.05;;;5.15;;
45236;SDS011;30973;51.442;3.580;2023-05-10T11:37:38;9.10;;;4.72;;
45236;SDS011;30973;51.442;3.580;2023-05-10T11:40:09;10.80;;;5.07;;
45236;SDS011;30973;51.442;3.580;2023-05-10T11:42:38;8.85;;;5.10;;
45236;SDS011;30973;51.442;3.580;2023-05-10T11:45:06;10.13;;;4.65;;
45236;SDS011;30973;51.442;3.580;2023-05-10T11:47:33;10.63;;;4.85;;
45236;SDS011;30973;51.442;3.580;2023-05-10T11:50:02;7.93;;;4.28;;
45236;SDS011;30973;51.442;3.580;2023-05-10T11:52:29;9.32;;;5.45;;
45236;SDS011;30973;51.442;3.580;2023-05-10T11:54:55;10.15;;;5.20;;
45236;SDS011;30973;51.442;3.580;2023-05-10T11:57:25;7.78;;;4.30;;
45236;SDS011;30973;51.442;3.580;2023-05-10T11:59:58;10.15;;;5.40;;
45236;SDS011;30973;51.442;3.580;2023-05-10T12:02:25;6.97;;;4.28;;
45236;SDS011;30973;51.442;3.580;2023-05-10T12:04:52;8.38;;;4.85;;
45236;SDS011;30973;51.442;3.580;2023-05-10T12:07:19;7.78;;;4.90;;
45236;SDS011;30973;51.442;3.580;2023-05-10T12:12:38;9.38;;;5.10;;
45236;SDS011;30973;51.442;3.580;2023-05-10T12:15:05;9.70;;;5.18;;
45236;SDS011;30973;51.442;3.580;2023-05-10T12:17:33;9.55;;;5.47;;
45236;SDS011;30973;51.442;3.580;2023-05-10T12:20:12;7.60;;;4.80;;
45236;SDS011;30973;51.442;3.580;2023-05-10T12:22:43;8.80;;;4.43;;
45236;SDS011;30973;51.442;3.580;2023-05-10T12:25:10;5.47;;;3.83;;
45236;SDS011;30973;51.442;3.580;2023-05-10T12:27:36;7.13;;;4.20;;
45236;SDS011;30973;51.442;3.580;2023-05-10T12:30:03;6.90;;;4.30;;
45236;SDS011;30973;51.442;3.580;2023-05-10T12:32:39;7.20;;;4.72;;
45236;SDS011;30973;51.442;3.580;2023-05-10T12:35:07;6.88;;;4.70;;
45236;SDS011;30973;51.442;3.580;2023-05-10T12:37:35;8.98;;;4.60;;
45236;SDS011;30973;51.442;3.580;2023-05-10T12:40:06;9.07;;;5.57;;
45236;SDS011;30973;51.442;3.580;2023-05-10T12:42:33;11.52;;;5.82;;
45236;SDS011;30973;51.442;3.580;2023-05-10T12:44:59;10.35;;;5.80;;
45236;SDS011;30973;51.442;3.580;2023-05-10T12:47:26;8.35;;;5.13;;
45236;SDS011;30973;51.442;3.580;2023-05-10T12:49:52;11.02;;;5.88;;
45236;SDS011;30973;51.442;3.580;2023-05-10T12:52:19;10.18;;;5.85;;
45236;SDS011;30973;51.442;3.580;2023-05-10T12:54:46;9.95;;;5.60;;
45236;SDS011;30973;51.442;3.580;2023-05-10T12:57:13;10.25;;;5.82;;
45236;SDS011;30973;51.442;3.580;2023-05-10T12:59:39;11.77;;;5.78;;
45236;SDS011;30973;51.442;3.580;2023-05-10T13:02:08;10.43;;;5.47;;
45236;SDS011;30973;51.442;3.580;2023-05-10T13:04:35;10.35;;;5.70;;
45236;SDS011;30973;51.442;3.580;2023-05-10T13:07:06;11.13;;;5.70;;
45236;SDS011;30973;51.442;3.580;2023-05-10T13:09:32;11.85;;;5.78;;
45236;SDS011;30973;51.442;3.580;2023-05-10T13:11:59;9.27;;;6.10;;
45236;SDS011;30973;51.442;3.580;2023-05-10T13:14:26;12.40;;;6.32;;
45236;SDS011;30973;51.442;3.580;2023-05-10T13:16:56;10.38;;;5.57;;
45236;SDS011;30973;51.442;3.580;2023-05-10T13:19:23;10.07;;;6.15;;
45236;SDS011;30973;51.442;3.580;2023-05-10T13:21:49;10.60;;;5.43;;
45236;SDS011;30973;51.442;3.580;2023-05-10T13:24:16;9.50;;;5.60;;
45236;SDS011;30973;51.442;3.580;2023-05-10T13:26:43;8.88;;;5.95;;
45236;SDS011;30973;51.442;3.580;2023-05-10T13:29:10;9.60;;;5.60;;
45236;SDS011;30973;51.442;3.580;2023-05-10T13:31:37;10.77;;;5.75;;
45236;SDS011;30973;51.442;3.580;2023-05-10T13:34:04;10.25;;;5.18;;
45236;SDS011;30973;51.442;3.580;2023-05-10T13:36:31;10.65;;;5.72;;
45236;SDS011;30973;51.442;3.580;2023-05-10T13:38:58;10.32;;;6.00;;
45236;SDS011;30973;51.442;3.580;2023-05-10T13:41:25;9.70;;;5.78;;
45236;SDS011;30973;51.442;3.580;2023-05-10T13:43:54;11.50;;;5.32;;
45236;SDS011;30973;51.442;3.580;2023-05-10T13:46:22;10.63;;;5.53;;
45236;SDS011;30973;51.442;3.580;2023-05-10T13:48:51;10.27;;;5.60;;
45236;SDS011;30973;51.442;3.580;2023-05-10T13:51:18;7.32;;;4.93;;
45236;SDS011;30973;51.442;3.580;2023-05-10T13:53:49;10.68;;;5.90;;
45236;SDS011;30973;51.442;3.580;2023-05-10T13:56:20;9.32;;;6.40;;
45236;SDS011;30973;51.442;3.580;2023-05-10T13:58:49;9.93;;;5.38;;
45236;SDS011;30973;51.442;3.580;2023-05-10T14:01:16;9.20;;;5.88;;
45236;SDS011;30973;51.442;3.580;2023-05-10T14:03:43;9.40;;;5.72;;
45236;SDS011;30973;51.442;3.580;2023-05-10T14:06:10;11.20;;;5.93;;
45236;SDS011;30973;51.442;3.580;2023-05-10T14:08:37;13.40;;;6.47;;
45236;SDS011;30973;51.442;3.580;2023-05-10T14:11:06;13.13;;;5.40;;
45236;SDS011;30973;51.442;3.580;2023-05-10T14:13:37;9.90;;;5.80;;
45236;SDS011;30973;51.442;3.580;2023-05-10T14:16:03;11.75;;;6.03;;
45236;SDS011;30973;51.442;3.580;2023-05-10T14:18:30;13.02;;;6.93;;
45236;SDS011;30973;51.442;3.580;2023-05-10T14:20:57;11.98;;;6.47;;
45236;SDS011;30973;51.442;3.580;2023-05-10T14:23:24;13.00;;;6.22;;
45236;SDS011;30973;51.442;3.580;2023-05-10T14:25:51;9.85;;;6.18;;
45236;SDS011;30973;51.442;3.580;2023-05-10T14:28:18;9.73;;;5.65;;
45236;SDS011;30973;51.442;3.580;2023-05-10T14:30:44;14.98;;;5.78;;
45236;SDS011;30973;51.442;3.580;2023-05-10T14:33:11;11.93;;;6.20;;
45236;SDS011;30973;51.442;3.580;2023-05-10T14:35:38;9.63;;;5.40;;
45236;SDS011;30973;51.442;3.580;2023-05-10T14:38:05;16.17;;;6.35;;
45236;SDS011;30973;51.442;3.580;2023-05-10T14:40:32;10.50;;;6.43;;
45236;SDS011;30973;51.442;3.580;2023-05-10T14:42:59;11.60;;;5.93;;
45236;SDS011;30973;51.442;3.580;2023-05-10T14:45:25;12.35;;;7.03;;
45236;SDS011;30973;51.442;3.580;2023-05-10T14:47:51;13.52;;;6.80;;
45236;SDS011;30973;51.442;3.580;2023-05-10T14:50:18;11.70;;;6.47;;
45236;SDS011;30973;51.442;3.580;2023-05-10T14:53:02;12.57;;;6.20;;
45236;SDS011;30973;51.442;3.580;2023-05-10T14:55:28;13.95;;;6.53;;
45236;SDS011;30973;51.442;3.580;2023-05-10T15:00:54;12.30;;;5.80;;
45236;SDS011;30973;51.442;3.580;2023-05-10T15:03:21;11.90;;;6.00;;
45236;SDS011;30973;51.442;3.580;2023-05-10T15:05:49;10.77;;;5.90;;
45236;SDS011;30973;51.442;3.580;2023-05-10T15:08:16;12.98;;;5.90;;
45236;SDS011;30973;51.442;3.580;2023-05-10T15:10:42;12.02;;;5.68;;
45236;SDS011;30973;51.442;3.580;2023-05-10T15:16:08;11.43;;;5.97;;
45236;SDS011;30973;51.442;3.580;2023-05-10T15:18:34;11.43;;;5.95;;
45236;SDS011;30973;51.442;3.580;2023-05-10T15:21:01;12.35;;;5.80;;
45236;SDS011;30973;51.442;3.580;2023-05-10T15:23:27;14.02;;;5.95;;
45236;SDS011;30973;51.442;3.580;2023-05-10T15:25:56;12.57;;;5.70;;